Time;durP1;ratioP1;P1;durP2;ratioP2;P2;SDS_P1;SDS_P2;PMS_P1;PMS_P2;Temp;Humidity;BMP_temperature;BMP_pressure;BME280_temperature;BME280_humidity;BME280_pressure;Samples;Min_cycle;Max_cycle;Signal;HPM_P1;HPM_P2
2022/12/15 00:39:42;;;;;;;53.90;4.40;;;;;;;;;;5015338;28;20037;-53
2022/12/15 00:42:09;;;;;;;44.80;5.20;;;;;;;;;;5012105;28;20036;-52
2022/12/15 00:44:36;;;;;;;48.10;4.70;;;;;;;;;;5000855;28;20074;-51
2022/12/15 00:47:04;;;;;;;42.92;4.63;;;;;;;;;;5014568;28;20033;-53
2022/12/15 01:22:38;;;;;;;190.73;20.02;;;;;;;;;;5014253;28;20546;-56
2022/12/15 01:25:05;;;;;;;220.02;22.77;;;;;;;;;;5013558;28;20034;-49
2022/12/15 01:27:32;;;;;;;191.55;20.52;;;;;;;;;;5013410;28;20112;-54
2022/12/15 01:29:59;;;;;;;178.45;20.23;;;;;;;;;;5007880;28;20034;-55
2022/12/15 01:32:26;;;;;;;201.20;20.65;;;;;;;;;;5013538;28;20056;-56
2022/12/15 01:34:54;;;;;;;184.38;18.80;;;;;;;;;;5013621;28;20045;-54
2022/12/15 01:37:21;;;;;;;192.15;19.67;;;;;;;;;;5012280;28;20506;-54
2022/12/15 01:42:33;;;;;;;158.20;18.58;;;;;;;;;;5005831;28;20076;-55
2022/12/15 01:45:38;;;;;;;147.32;17.15;;;;;;;;;;5003387;28;20395;-52
2022/12/15 01:48:07;;;;;;;136.75;16.83;;;;;;;;;;5001259;28;20037;-54
2022/12/15 01:50:49;;;;;;;166.98;17.60;;;;;;;;;;4995053;28;20036;-56
2022/12/15 01:53:17;;;;;;;140.02;17.20;;;;;;;;;;4976917;28;20110;-56
2022/12/15 01:55:46;;;;;;;152.43;18.25;;;;;;;;;;4996448;28;20494;-54
2022/12/15 01:58:15;;;;;;;134.00;18.35;;;;;;;;;;5013486;28;20092;-57
2022/12/15 02:00:42;;;;;;;126.18;16.55;;;;;;;;;;4996201;28;20050;-52
2022/12/15 02:03:09;;;;;;;120.93;14.85;;;;;;;;;;4995780;28;20097;-53
2022/12/15 02:05:36;;;;;;;136.02;15.57;;;;;;;;;;5013940;28;20368;-57
2022/12/15 02:08:04;;;;;;;130.68;15.38;;;;;;;;;;5012953;28;20077;-51
2022/12/15 02:10:46;;;;;;;132.65;15.20;;;;;;;;;;5002915;28;20052;-60
2022/12/15 02:13:21;;;;;;;109.10;14.05;;;;;;;;;;4999895;28;20030;-51
2022/12/15 02:16:08;;;;;;;114.82;12.07;;;;;;;;;;4999058;28;20481;-55
2022/12/15 02:18:40;;;;;;;112.72;13.65;;;;;;;;;;5023595;28;20030;-54
2022/12/15 02:21:14;;;;;;;110.97;13.45;;;;;;;;;;5033112;28;20033;-55
2022/12/15 02:23:41;;;;;;;110.43;13.05;;;;;;;;;;5033419;28;20021;-55
2022/12/15 02:26:32;;;;;;;101.63;13.05;;;;;;;;;;5033367;28;20048;-55
2022/12/15 02:29:23;;;;;;;107.73;12.90;;;;;;;;;;5032996;28;20030;-52
2022/12/15 02:31:55;;;;;;;103.05;12.02;;;;;;;;;;5015483;28;20033;-57
2022/12/15 02:34:22;;;;;;;;;;;;;;;;;;5033538;28;20541;-56
2022/12/15 02:36:55;;;;;;;100.40;12.07;;;;;;;;;;5015161;28;19908;-59
2022/12/15 02:39:23;;;;;;;107.65;11.68;;;;;;;;;;5033044;28;20025;-57
2022/12/15 02:41:51;;;;;;;91.20;12.07;;;;;;;;;;5032958;28;20029;-57
2022/12/15 02:44:18;;;;;;;93.28;11.65;;;;;;;;;;5032857;28;20585;-56
2022/12/15 02:46:55;;;;;;;95.57;11.85;;;;;;;;;;5032645;28;20419;-57
2022/12/15 02:49:28;;;;;;;84.82;10.80;;;;;;;;;;5032680;28;20037;-55
2022/12/15 02:52:02;;;;;;;86.72;9.75;;;;;;;;;;5032705;28;20029;-56
2022/12/15 02:54:41;;;;;;;80.97;10.57;;;;;;;;;;5032834;28;20025;-56
2022/12/15 02:57:26;;;;;;;83.65;10.77;;;;;;;;;;5032493;28;20419;-53
2022/12/15 03:00:04;;;;;;;75.43;9.32;;;;;;;;;;5032724;28;20482;-57
2022/12/15 03:02:33;;;;;;;77.35;9.15;;;;;;;;;;5032710;28;20025;-57
2022/12/15 03:05:00;;;;;;;74.93;8.57;;;;;;;;;;5032598;28;20029;-55
2022/12/15 03:07:27;;;;;;;71.85;8.85;;;;;;;;;;5032275;28;20025;-55
2022/12/15 03:09:55;;;;;;;79.93;9.38;;;;;;;;;;5032533;28;20099;-56
2022/12/15 03:12:22;;;;;;;67.03;7.47;;;;;;;;;;5032522;28;20075;-55
2022/12/15 03:14:49;;;;;;;66.50;8.07;;;;;;;;;;5032492;28;20519;-55
2022/12/15 03:17:16;;;;;;;65.47;8.57;;;;;;;;;;5032296;28;20475;-56
2022/12/15 03:19:43;;;;;;;62.83;8.02;;;;;;;;;;5032289;28;20029;-56
2022/12/15 03:22:10;;;;;;;59.75;7.90;;;;;;;;;;5032329;28;20479;-53
2022/12/15 03:24:37;;;;;;;54.55;7.20;;;;;;;;;;5032154;28;20391;-55
2022/12/15 03:27:04;;;;;;;48.55;6.88;;;;;;;;;;5032214;28;20518;-54
2022/12/15 03:29:31;;;;;;;58.42;7.43;;;;;;;;;;5032072;28;20068;-57
2022/12/15 03:31:58;;;;;;;44.85;6.75;;;;;;;;;;5032066;28;20049;-56
2022/12/15 03:34:25;;;;;;;37.95;5.97;;;;;;;;;;5032047;28;20071;-57
2022/12/15 03:36:52;;;;;;;45.35;6.28;;;;;;;;;;5032077;28;20026;-57
2022/12/15 03:39:19;;;;;;;41.35;5.90;;;;;;;;;;5032078;28;20026;-53
2022/12/15 03:41:46;;;;;;;36.40;6.03;;;;;;;;;;5032000;28;20025;-56
2022/12/15 03:44:13;;;;;;;37.70;5.72;;;;;;;;;;5032053;28;20025;-52
2022/12/15 03:46:40;;;;;;;45.17;6.20;;;;;;;;;;5032075;28;20042;-57
2022/12/15 03:49:07;;;;;;;39.55;5.88;;;;;;;;;;5031881;28;20026;-57
2022/12/15 03:51:34;;;;;;;45.22;5.32;;;;;;;;;;5031818;28;20025;-55
2022/12/15 03:54:01;;;;;;;37.17;5.43;;;;;;;;;;5031927;28;20148;-53
2022/12/15 03:56:28;;;;;;;33.20;5.13;;;;;;;;;;5031715;28;20049;-53
2022/12/15 03:58:55;;;;;;;38.38;5.53;;;;;;;;;;5031775;28;20025;-54
2022/12/15 04:01:29;;;;;;;29.25;5.03;;;;;;;;;;5035816;28;20024;-57
2022/12/15 04:03:57;;;;;;;27.15;4.63;;;;;;;;;;5035856;28;20029;-53
2022/12/15 04:06:24;;;;;;;29.80;4.82;;;;;;;;;;5035978;28;20506;-52
2022/12/15 04:08:51;;;;;;;24.67;4.15;;;;;;;;;;5035670;28;20029;-53
2022/12/15 04:11:18;;;;;;;32.10;4.85;;;;;;;;;;5035940;28;20018;-51
2022/12/15 04:13:45;;;;;;;30.15;4.47;;;;;;;;;;5035751;28;20531;-50
2022/12/15 04:16:12;;;;;;;26.70;3.88;;;;;;;;;;5035809;28;20022;-52
2022/12/15 04:18:39;;;;;;;28.00;3.85;;;;;;;;;;5035513;28;20028;-55
2022/12/15 04:21:06;;;;;;;26.02;4.07;;;;;;;;;;5035536;28;20029;-54
2022/12/15 04:23:33;;;;;;;21.80;3.25;;;;;;;;;;5035666;28;20539;-52
2022/12/15 05:32:24;;;;;;;14.43;2.10;;;;;;;;;;5034199;28;20079;-51
2022/12/15 05:34:51;;;;;;;11.57;2.35;;;;;;;;;;5034350;28;20018;-52
2022/12/15 05:37:18;;;;;;;14.40;1.98;;;;;;;;;;5016383;28;20045;-53
2022/12/15 05:39:44;;;;;;;10.57;1.90;;;;;;;;;;5034244;28;20038;-53
2022/12/15 05:42:11;;;;;;;10.10;1.95;;;;;;;;;;5034104;28;20391;-55
2022/12/15 05:44:39;;;;;;;8.13;1.85;;;;;;;;;;5034228;28;20034;-51
2022/12/15 05:47:08;;;;;;;11.52;1.65;;;;;;;;;;5033930;28;20064;-52
2022/12/15 05:49:35;;;;;;;13.15;2.20;;;;;;;;;;5034098;28;20400;-54
2022/12/15 05:52:01;;;;;;;9.68;1.95;;;;;;;;;;5034080;28;20030;-53
2022/12/15 05:54:28;;;;;;;11.57;1.98;;;;;;;;;;5016052;28;20136;-54
2022/12/15 05:56:55;;;;;;;9.30;2.05;;;;;;;;;;5033663;28;20036;-51
2022/12/15 05:59:22;;;;;;;8.25;1.90;;;;;;;;;;5033937;28;20045;-52
2022/12/15 06:01:49;;;;;;;7.78;1.63;;;;;;;;;;5022547;28;20038;-51
2022/12/15 06:04:16;;;;;;;11.10;2.35;;;;;;;;;;5013948;28;20041;-53
2022/12/15 06:06:43;;;;;;;7.50;1.77;;;;;;;;;;5013914;28;20476;-51
2022/12/15 06:09:10;;;;;;;5.35;1.42;;;;;;;;;;5013842;28;20040;-51
2022/12/15 06:11:37;;;;;;;5.05;1.60;;;;;;;;;;5013977;28;20021;-53
2022/12/15 06:14:05;;;;;;;7.35;1.70;;;;;;;;;;5013886;28;20057;-52
2022/12/15 06:16:32;;;;;;;5.80;1.80;;;;;;;;;;5013775;28;20104;-54
2022/12/15 06:19:00;;;;;;;8.25;2.30;;;;;;;;;;5013770;28;20105;-52
2022/12/15 06:21:29;;;;;;;6.60;1.58;;;;;;;;;;5013657;28;20495;-55
2022/12/15 06:23:56;;;;;;;6.13;1.58;;;;;;;;;;5012895;28;20026;-55
2022/12/15 06:26:25;;;;;;;8.77;1.85;;;;;;;;;;5013676;28;20029;-52
2022/12/15 06:28:52;;;;;;;4.00;1.38;;;;;;;;;;5013424;28;20114;-52
2022/12/15 06:31:24;;;;;;;7.20;1.65;;;;;;;;;;5013364;28;20029;-52
2022/12/15 06:33:51;;;;;;;4.78;1.40;;;;;;;;;;5013265;28;20519;-51
2022/12/15 06:36:19;;;;;;;6.20;1.60;;;;;;;;;;5013451;28;20032;-54
2022/12/15 06:38:46;;;;;;;10.07;2.00;;;;;;;;;;5013255;28;20029;-54
2022/12/15 06:41:14;;;;;;;5.40;1.85;;;;;;;;;;5012701;28;20049;-53
2022/12/15 06:43:41;;;;;;;10.85;2.20;;;;;;;;;;5013239;28;20021;-54
2022/12/15 06:46:09;;;;;;;6.65;1.40;;;;;;;;;;5013325;28;20018;-53
2022/12/15 06:48:36;;;;;;;5.00;1.55;;;;;;;;;;5013123;28;20080;-51
2022/12/15 06:51:04;;;;;;;4.75;1.25;;;;;;;;;;5013108;28;20114;-51
2022/12/15 06:53:31;;;;;;;7.65;1.65;;;;;;;;;;5013070;28;20510;-54
2022/12/15 06:56:02;;;;;;;6.20;1.75;;;;;;;;;;5013111;28;20026;-51
2022/12/15 06:58:29;;;;;;;5.18;1.50;;;;;;;;;;5012358;28;20040;-54
2022/12/15 07:00:56;;;;;;;7.15;1.60;;;;;;;;;;5013039;28;20053;-54
2022/12/15 07:03:23;;;;;;;5.53;1.50;;;;;;;;;;5013016;28;20030;-52
2022/12/15 07:06:00;;;;;;;6.60;1.38;;;;;;;;;;5012839;28;20604;-52
2022/12/15 07:08:27;;;;;;;6.90;1.45;;;;;;;;;;5012699;28;20472;-53
2022/12/15 07:10:54;;;;;;;4.22;1.20;;;;;;;;;;5012893;28;20026;-54
2022/12/15 07:13:22;;;;;;;4.93;1.23;;;;;;;;;;4995020;28;20135;-53
2022/12/15 07:15:48;;;;;;;7.40;1.70;;;;;;;;;;5012725;28;20026;-54
2022/12/15 07:18:16;;;;;;;5.55;1.60;;;;;;;;;;5012633;28;20033;-51
2022/12/15 07:20:44;;;;;;;4.32;1.30;;;;;;;;;;5012742;28;20112;-51
2022/12/15 07:23:11;;;;;;;5.43;1.52;;;;;;;;;;5012780;28;20510;-53
2022/12/15 07:25:38;;;;;;;6.82;1.67;;;;;;;;;;5012598;28;20476;-51
2022/12/15 07:28:06;;;;;;;4.95;1.55;;;;;;;;;;5012464;28;20084;-51
2022/12/15 07:30:34;;;;;;;7.45;1.50;;;;;;;;;;5012405;28;20088;-53
2022/12/15 07:33:01;;;;;;;6.13;1.75;;;;;;;;;;5012360;28;20049;-52
2022/12/15 07:35:28;;;;;;;4.57;1.33;;;;;;;;;;5012519;28;20025;-53
2022/12/15 07:37:55;;;;;;;5.88;1.70;;;;;;;;;;5012381;28;20036;-53
2022/12/15 07:40:22;;;;;;;8.20;1.50;;;;;;;;;;5012506;28;20026;-52
2022/12/15 07:42:49;;;;;;;6.05;1.48;;;;;;;;;;5012465;28;20026;-56
2022/12/15 07:45:16;;;;;;;5.03;1.60;;;;;;;;;;5012446;28;20026;-49
2022/12/15 07:47:43;;;;;;;5.70;1.38;;;;;;;;;;5012265;28;20033;-52
2022/12/15 07:50:10;;;;;;;4.13;1.08;;;;;;;;;;5012310;28;20026;-50
2022/12/15 07:52:37;;;;;;;7.70;1.55;;;;;;;;;;5012205;28;20101;-57
2022/12/15 07:55:04;;;;;;;5.60;1.55;;;;;;;;;;5012259;28;20029;-49
2022/12/15 07:57:31;;;;;;;3.92;1.40;;;;;;;;;;5012255;28;20021;-49
2022/12/15 07:59:58;;;;;;;6.15;1.35;;;;;;;;;;5012074;28;20034;-51
2022/12/15 08:02:25;;;;;;;6.32;1.70;;;;;;;;;;5012200;28;20131;-53
2022/12/15 08:04:52;;;;;;;5.78;1.40;;;;;;;;;;5012203;28;20477;-54
2022/12/15 08:07:19;;;;;;;3.85;1.17;;;;;;;;;;5012141;28;20097;-49
2022/12/15 08:09:47;;;;;;;4.32;1.30;;;;;;;;;;5012137;28;20489;-55
2022/12/15 08:12:15;;;;;;;6.70;1.40;;;;;;;;;;5177789;22;20046;-45
2022/12/15 08:14:42;;;;;;;5.43;1.33;;;;;;;;;;5031665;28;20036;-45
2022/12/15 08:17:09;;;;;;;5.88;1.35;;;;;;;;;;5032129;28;20076;-45
2022/12/15 08:19:36;;;;;;;8.57;1.45;;;;;;;;;;5031660;28;20499;-45
2022/12/15 08:22:03;;;;;;;6.28;1.17;;;;;;;;;;5031656;28;20100;-46
2022/12/15 08:24:30;;;;;;;6.13;1.30;;;;;;;;;;5031728;28;20028;-46
2022/12/15 08:26:58;;;;;;;3.60;1.13;;;;;;;;;;5031676;28;20111;-45
2022/12/15 08:29:25;;;;;;;6.00;1.38;;;;;;;;;;5031630;28;20033;-45
2022/12/15 08:31:52;;;;;;;7.72;1.40;;;;;;;;;;5031296;28;20022;-46
2022/12/15 08:34:19;;;;;;;3.90;1.10;;;;;;;;;;5031627;28;20025;-46
2022/12/15 08:36:46;;;;;;;4.05;1.23;;;;;;;;;;5031341;28;20040;-45
2022/12/15 08:39:13;;;;;;;4.97;1.25;;;;;;;;;;5031639;28;20026;-45
2022/12/15 08:41:40;;;;;;;5.57;1.55;;;;;;;;;;5031693;28;20026;-46
2022/12/15 08:44:07;;;;;;;4.07;1.10;;;;;;;;;;5031367;28;20033;-44
2022/12/15 08:46:35;;;;;;;3.97;1.00;;;;;;;;;;5033950;28;20048;-45
2022/12/15 08:49:02;;;;;;;3.47;1.13;;;;;;;;;;5035181;28;20041;-45
2022/12/15 08:51:30;;;;;;;6.28;1.50;;;;;;;;;;5035014;28;20093;-46
2022/12/15 08:53:58;;;;;;;6.60;1.48;;;;;;;;;;5035102;28;20026;-44
2022/12/15 08:56:25;;;;;;;3.53;1.27;;;;;;;;;;5035109;28;20018;-45
2022/12/15 08:58:56;;;;;;;6.85;1.42;;;;;;;;;;5035046;28;20034;-44
2022/12/15 09:01:23;;;;;;;4.50;1.20;;;;;;;;;;5034881;28;20048;-46
2022/12/15 09:03:52;;;;;;;4.13;1.25;;;;;;;;;;5034731;28;20026;-44
2022/12/15 09:06:29;;;;;;;6.20;1.80;;;;;;;;;;5034734;28;20029;-45
2022/12/15 09:09:00;;;;;;;7.18;1.23;;;;;;;;;;5034790;28;20033;-45
2022/12/15 09:11:27;;;;;;;7.22;1.45;;;;;;;;;;5034578;28;20055;-44
2022/12/15 09:13:54;;;;;;;7.07;1.75;;;;;;;;;;5034490;28;20360;-45
2022/12/15 09:16:22;;;;;;;7.80;1.70;;;;;;;;;;5034687;28;20030;-45
2022/12/15 09:18:50;;;;;;;6.82;1.85;;;;;;;;;;5034668;28;20025;-46
2022/12/15 09:21:18;;;;;;;11.50;2.30;;;;;;;;;;5034606;28;20029;-45
2022/12/15 09:23:50;;;;;;;11.68;2.10;;;;;;;;;;5034580;28;20483;-45
2022/12/15 09:26:16;;;;;;;;;;;;;;;;;;5034768;28;20403;-45
2022/12/15 09:28:44;;;;;;;17.55;2.35;;;;;;;;;;5034414;28;19924;-45
2022/12/15 09:31:10;;;;;;;9.45;1.92;;;;;;;;;;5034290;28;20383;-44
2022/12/15 09:33:38;;;;;;;9.68;2.25;;;;;;;;;;5034407;28;20030;-45
2022/12/15 09:36:05;;;;;;;9.40;2.10;;;;;;;;;;5034386;28;20067;-44
2022/12/15 09:38:39;;;;;;;14.15;2.55;;;;;;;;;;5034203;28;20105;-45
2022/12/15 09:41:15;;;;;;;11.98;1.90;;;;;;;;;;5034203;28;20033;-47
2022/12/15 09:43:49;;;;;;;14.55;2.53;;;;;;;;;;5014718;28;20065;-45
2022/12/15 09:46:34;;;;;;;24.00;3.25;;;;;;;;;;5014450;28;20072;-44
2022/12/15 09:49:03;;;;;;;16.95;2.80;;;;;;;;;;5014221;28;20141;-46
2022/12/15 09:51:34;;;;;;;20.02;3.30;;;;;;;;;;5013595;28;20500;-45
2022/12/15 09:54:01;;;;;;;20.33;3.72;;;;;;;;;;5014275;28;20165;-46
2022/12/15 09:56:48;;;;;;;21.80;3.58;;;;;;;;;;5013732;28;20577;-44
2022/12/15 09:59:24;;;;;;;19.60;3.42;;;;;;;;;;5013736;28;20026;-45
2022/12/15 10:02:03;;;;;;;19.80;4.28;;;;;;;;;;5013963;28;20225;-44
2022/12/15 10:04:51;;;;;;;26.50;4.05;;;;;;;;;;5014043;28;20029;-44
2022/12/15 10:07:18;;;;;;;31.60;5.18;;;;;;;;;;5013976;28;20048;-45
2022/12/15 10:09:45;;;;;;;27.90;4.53;;;;;;;;;;5020254;28;20069;-45
2022/12/15 10:12:17;;;;;;;33.38;5.47;;;;;;;;;;5032139;28;20545;-45
2022/12/15 10:14:50;;;;;;;23.95;4.10;;;;;;;;;;5033613;28;20086;-44
2022/12/15 10:17:17;;;;;;;55.35;5.95;;;;;;;;;;5033404;28;20064;-46
2022/12/15 10:20:05;;;;;;;21.23;4.45;;;;;;;;;;5021411;28;20010;-45
2022/12/15 10:22:34;;;;;;;27.73;5.18;;;;;;;;;;4999826;28;20041;-43
2022/12/15 10:25:18;;;;;;;51.72;6.15;;;;;;;;;;5013488;28;20073;-47
2022/12/15 10:28:04;;;;;;;32.63;4.90;;;;;;;;;;5013346;28;20022;-43
2022/12/15 10:30:31;;;;;;;76.13;8.60;;;;;;;;;;5011822;28;20076;-46
2022/12/15 10:33:08;;;;;;;77.20;8.38;;;;;;;;;;5012689;28;20058;-43
2022/12/15 10:35:39;;;;;;;31.08;5.13;;;;;;;;;;5032662;28;20395;-43
2022/12/15 10:38:22;;;;;;;41.50;5.57;;;;;;;;;;5032751;28;20097;-46
2022/12/15 10:40:49;;;;;;;161.52;14.90;;;;;;;;;;5032808;28;20033;-43
2022/12/15 10:43:25;;;;;;;49.20;6.00;;;;;;;;;;5032652;28;20025;-43
2022/12/15 10:46:02;;;;;;;37.30;4.65;;;;;;;;;;5032860;28;20022;-42
2022/12/15 10:48:28;;;;;;;38.08;4.70;;;;;;;;;;5032783;28;20124;-43
2022/12/15 10:51:13;;;;;;;64.47;6.55;;;;;;;;;;5032786;28;20071;-42
2022/12/15 10:53:40;;;;;;;176.10;14.75;;;;;;;;;;5032613;28;20034;-44
2022/12/15 10:56:08;;;;;;;51.17;5.72;;;;;;;;;;5032614;28;20084;-42
2022/12/15 10:58:57;;;;;;;59.35;6.90;;;;;;;;;;5032661;28;20021;-44
2022/12/15 11:01:29;;;;;;;62.35;6.53;;;;;;;;;;5029377;28;20037;-42
2022/12/15 11:03:56;;;;;;;38.90;4.75;;;;;;;;;;5032549;28;20470;-43
2022/12/15 11:06:24;;;;;;;20.55;3.30;;;;;;;;;;5032336;28;20021;-43
2022/12/15 11:08:53;;;;;;;22.25;3.05;;;;;;;;;;5032059;28;20033;-42
2022/12/15 11:14:29;;;;;;;20.73;2.50;;;;;;;;;;5032552;28;20183;-42
2022/12/15 11:16:57;;;;;;;36.22;4.93;;;;;;;;;;5032176;28;20472;-42
2022/12/15 11:19:30;;;;;;;24.23;3.40;;;;;;;;;;5031919;28;20052;-42
2022/12/15 11:22:01;;;;;;;19.95;3.08;;;;;;;;;;5032311;28;20097;-43
2022/12/15 11:24:45;;;;;;;18.93;3.87;;;;;;;;;;5032215;28;20156;-42
2022/12/15 11:27:30;;;;;;;23.30;3.80;;;;;;;;;;5032090;28;20264;-42
2022/12/15 11:30:17;;;;;;;50.80;4.82;;;;;;;;;;5032105;28;20081;-42
2022/12/15 11:32:46;;;;;;;41.75;5.28;;;;;;;;;;5032107;28;20022;-42
2022/12/15 11:35:19;;;;;;;29.30;3.83;;;;;;;;;;5032143;28;20044;-44
2022/12/15 11:37:56;;;;;;;21.05;2.33;;;;;;;;;;5032221;28;20028;-42
2022/12/15 11:40:38;;;;;;;32.53;3.90;;;;;;;;;;5030465;28;20036;-42
2022/12/15 11:43:05;;;;;;;;;;;;;;;;;;5032344;28;20030;-42
2022/12/15 11:45:35;;;;;;;32.00;3.60;;;;;;;;;;5032049;28;19959;-43
2022/12/15 11:48:08;;;;;;;25.10;3.33;;;;;;;;;;5031872;28;20068;-43
2022/12/15 11:50:35;;;;;;;26.92;3.25;;;;;;;;;;5031920;28;20079;-42
2022/12/15 11:53:20;;;;;;;26.08;3.08;;;;;;;;;;5030394;28;20116;-43
2022/12/15 11:55:58;;;;;;;24.35;2.95;;;;;;;;;;5032037;28;20231;-45
2022/12/15 11:58:24;;;;;;;43.78;5.05;;;;;;;;;;5031782;28;20033;-42
2022/12/15 12:01:00;;;;;;;27.00;3.85;;;;;;;;;;5031804;28;20029;-43
2022/12/15 12:03:34;;;;;;;18.50;2.70;;;;;;;;;;5031868;28;20033;-42
2022/12/15 12:06:10;;;;;;;19.63;3.10;;;;;;;;;;5031843;28;20123;-43
2022/12/15 12:08:46;;;;;;;28.98;3.55;;;;;;;;;;5031642;28;20049;-44
2022/12/15 12:11:13;;;;;;;23.33;3.45;;;;;;;;;;5030010;28;20138;-42
2022/12/15 12:13:58;;;;;;;18.98;2.47;;;;;;;;;;5031764;28;20160;-42
2022/12/15 12:16:31;;;;;;;20.38;3.08;;;;;;;;;;5031838;28;20543;-42
2022/12/15 12:19:18;;;;;;;19.70;3.10;;;;;;;;;;5031674;28;20029;-44
2022/12/15 12:21:46;;;;;;;16.50;2.55;;;;;;;;;;5034421;28;20025;-42
2022/12/15 12:24:17;;;;;;;21.92;2.35;;;;;;;;;;5035598;28;20036;-42
2022/12/15 12:26:51;;;;;;;25.08;3.10;;;;;;;;;;5035683;28;20026;-42
2022/12/15 12:29:21;;;;;;;24.23;3.78;;;;;;;;;;5035470;28;20033;-43
2022/12/15 12:31:57;;;;;;;31.52;3.65;;;;;;;;;;5035261;28;20022;-43
2022/12/15 12:34:30;;;;;;;25.45;3.38;;;;;;;;;;5035621;28;20033;-43
2022/12/15 12:37:03;;;;;;;22.80;3.00;;;;;;;;;;5035407;28;20131;-44
2022/12/15 12:39:31;;;;;;;23.67;3.08;;;;;;;;;;5034873;28;20033;-43
2022/12/15 12:42:01;;;;;;;24.08;2.75;;;;;;;;;;5035109;28;20029;-44
2022/12/15 12:44:32;;;;;;;24.10;3.22;;;;;;;;;;5035172;28;20025;-43
2022/12/15 12:47:06;;;;;;;22.55;3.58;;;;;;;;;;5035219;28;20025;-44
2022/12/15 12:49:38;;;;;;;53.17;10.23;;;;;;;;;;5034966;28;20367;-45
2022/12/15 12:52:06;;;;;;;66.57;10.90;;;;;;;;;;5035131;28;20382;-45
2022/12/15 12:54:36;;;;;;;54.25;8.75;;;;;;;;;;5034985;28;20075;-44
2022/12/15 12:57:13;;;;;;;57.15;9.50;;;;;;;;;;5034926;28;20501;-44
2022/12/15 12:59:57;;;;;;;38.90;6.63;;;;;;;;;;5017002;28;20107;-49
2022/12/15 13:02:24;;;;;;;54.33;6.63;;;;;;;;;;5034615;28;20119;-45
2022/12/15 13:04:50;;;;;;;43.75;5.13;;;;;;;;;;5034989;28;20111;-46
2022/12/15 13:07:39;;;;;;;62.20;6.57;;;;;;;;;;5034787;28;20029;-52
2022/12/15 13:10:09;;;;;;;61.22;6.88;;;;;;;;;;5014805;28;20053;-50
2022/12/15 13:12:58;;;;;;;34.03;5.45;;;;;;;;;;5014804;28;20058;-52
2022/12/15 13:15:27;;;;;;;145.73;16.33;;;;;;;;;;5005600;28;20042;-46
2022/12/15 13:17:56;;;;;;;139.35;14.20;;;;;;;;;;5014815;28;20026;-49
2022/12/15 13:20:27;;;;;;;200.27;20.60;;;;;;;;;;5014695;28;20026;-47
2022/12/15 13:22:55;;;;;;;128.07;17.97;;;;;;;;;;5014660;28;20022;-47
2022/12/15 13:25:36;;;;;;;92.15;14.15;;;;;;;;;;4996999;28;20032;-48
2022/12/15 13:28:23;;;;;;;72.47;9.95;;;;;;;;;;5014449;28;20107;-49
2022/12/15 13:31:08;;;;;;;64.50;8.57;;;;;;;;;;5014435;28;20061;-51
2022/12/15 13:33:43;;;;;;;62.90;8.30;;;;;;;;;;5014630;28;20104;-47
2022/12/15 13:36:10;;;;;;;57.47;7.78;;;;;;;;;;5014428;28;20061;-50
2022/12/15 13:38:54;;;;;;;42.67;8.00;;;;;;;;;;4996606;28;20030;-47
2022/12/15 13:41:25;;;;;;;38.75;6.50;;;;;;;;;;5014263;28;20029;-48
2022/12/15 13:43:53;;;;;;;37.30;6.47;;;;;;;;;;5014295;28;20033;-49
2022/12/15 13:46:23;;;;;;;30.48;6.00;;;;;;;;;;5014154;28;20053;-49
2022/12/15 13:49:02;;;;;;;40.10;5.95;;;;;;;;;;5014273;28;20109;-50
2022/12/15 13:51:42;;;;;;;36.65;6.47;;;;;;;;;;5014211;28;20092;-50
2022/12/15 13:54:09;;;;;;;31.95;4.88;;;;;;;;;;5014084;28;20030;-48
2022/12/15 13:56:45;;;;;;;35.90;6.30;;;;;;;;;;5014159;28;20057;-50
2022/12/15 13:59:27;;;;;;;37.00;5.88;;;;;;;;;;5014052;28;20395;-48
2022/12/15 14:01:54;;;;;;;38.42;5.75;;;;;;;;;;5013810;28;20514;-52
2022/12/15 14:04:22;;;;;;;38.90;5.85;;;;;;;;;;5014051;28;20655;-49
2022/12/15 14:06:52;;;;;;;38.67;6.40;;;;;;;;;;5011874;28;20022;-54
2022/12/15 14:09:28;;;;;;;44.03;7.22;;;;;;;;;;5032084;28;20035;-51
2022/12/15 14:11:55;;;;;;;38.42;6.93;;;;;;;;;;5032895;28;20045;-49
2022/12/15 14:14:27;;;;;;;35.38;5.40;;;;;;;;;;5032921;28;20025;-49
2022/12/15 14:17:06;;;;;;;60.60;7.30;;;;;;;;;;5032681;28;20027;-51
2022/12/15 14:19:38;;;;;;;52.03;5.70;;;;;;;;;;5033009;28;20483;-53
2022/12/15 14:22:18;;;;;;;34.90;4.83;;;;;;;;;;5032638;28;20029;-48
2022/12/15 14:24:46;;;;;;;36.70;5.65;;;;;;;;;;5032698;28;20060;-50
2022/12/15 14:27:28;;;;;;;46.20;5.72;;;;;;;;;;5032649;28;20018;-50
2022/12/15 14:30:13;;;;;;;31.67;4.68;;;;;;;;;;5032681;28;20029;-49
2022/12/15 14:32:41;;;;;;;35.47;5.43;;;;;;;;;;5032531;28;20109;-48
2022/12/15 14:35:13;;;;;;;41.42;5.65;;;;;;;;;;5032495;28;20026;-48
2022/12/15 14:37:41;;;;;;;63.20;6.85;;;;;;;;;;5032606;28;20517;-51
2022/12/15 14:40:12;;;;;;;43.75;6.15;;;;;;;;;;5032187;28;20033;-52
2022/12/15 14:42:40;;;;;;;42.10;5.93;;;;;;;;;;5032111;28;20517;-53
2022/12/15 14:45:16;;;;;;;35.63;4.95;;;;;;;;;;5032648;28;20033;-48
2022/12/15 14:47:49;;;;;;;38.33;5.20;;;;;;;;;;5032164;28;20429;-50
2022/12/15 14:50:17;;;;;;;36.15;5.15;;;;;;;;;;5032240;28;20026;-49
2022/12/15 14:52:44;;;;;;;38.22;5.55;;;;;;;;;;5032309;28;20025;-52
2022/12/15 14:55:35;;;;;;;33.47;5.47;;;;;;;;;;5032102;28;20028;-50
2022/12/15 14:58:02;;;;;;;41.70;5.70;;;;;;;;;;5032223;28;20026;-51
2022/12/15 15:00:31;;;;;;;41.25;6.22;;;;;;;;;;5031913;28;20081;-49
2022/12/15 15:03:17;;;;;;;40.60;5.60;;;;;;;;;;5031867;28;20022;-50
2022/12/15 15:06:04;;;;;;;35.42;4.97;;;;;;;;;;5032160;28;20502;-49
2022/12/15 15:08:35;;;;;;;35.60;5.03;;;;;;;;;;5031575;28;20029;-51
2022/12/15 15:11:19;;;;;;;30.63;5.00;;;;;;;;;;5031608;28;20060;-49
2022/12/15 15:13:46;;;;;;;32.35;4.97;;;;;;;;;;5032226;28;20033;-52
2022/12/15 15:16:17;;;;;;;33.13;5.13;;;;;;;;;;5031598;28;20018;-52
2022/12/15 15:18:48;;;;;;;43.03;5.88;;;;;;;;;;5031963;28;20108;-51
2022/12/15 15:21:17;;;;;;;22.33;3.97;;;;;;;;;;5031805;28;20017;-52
2022/12/15 15:23:57;;;;;;;23.15;3.35;;;;;;;;;;5031486;28;20048;-51
2022/12/15 15:26:25;;;;;;;23.73;3.47;;;;;;;;;;5031740;28;20029;-50
2022/12/15 15:28:52;;;;;;;23.20;3.65;;;;;;;;;;5031682;28;20487;-49
2022/12/15 15:31:29;;;;;;;27.85;4.28;;;;;;;;;;5030604;28;20613;-54
2022/12/15 15:33:56;;;;;;;23.40;3.88;;;;;;;;;;5031584;28;20067;-48
2022/12/15 15:36:30;;;;;;;30.15;4.20;;;;;;;;;;5031355;28;20578;-52
2022/12/15 15:38:57;;;;;;;24.92;3.58;;;;;;;;;;5031214;28;20029;-49
2022/12/15 15:41:30;;;;;;;22.58;3.15;;;;;;;;;;5031573;28;20025;-51
2022/12/15 15:43:58;;;;;;;32.30;3.85;;;;;;;;;;5031442;28;20021;-55
2022/12/15 15:46:28;;;;;;;46.80;5.32;;;;;;;;;;5030820;28;20036;-49
2022/12/15 15:49:00;;;;;;;19.13;2.38;;;;;;;;;;5031390;28;20025;-54
2022/12/15 15:51:27;;;;;;;34.45;3.60;;;;;;;;;;5015143;28;20117;-52
2022/12/15 15:53:58;;;;;;;19.77;3.17;;;;;;;;;;5018329;28;20076;-52
2022/12/15 15:56:26;;;;;;;31.20;3.78;;;;;;;;;;5045202;28;20479;-49
2022/12/15 15:58:53;;;;;;;18.38;2.92;;;;;;;;;;5050077;28;20040;-47
2022/12/15 16:01:20;;;;;;;22.98;3.70;;;;;;;;;;5040332;28;20041;-49
2022/12/15 16:03:47;;;;;;;19.67;3.83;;;;;;;;;;5031207;28;20029;-47
2022/12/15 16:06:18;;;;;;;19.17;3.45;;;;;;;;;;5029924;28;20089;-46
2022/12/15 16:08:46;;;;;;;32.22;4.50;;;;;;;;;;5029813;28;20040;-48
2022/12/15 16:11:14;;;;;;;33.22;4.70;;;;;;;;;;5030357;28;20068;-49
2022/12/15 16:13:41;;;;;;;36.45;4.95;;;;;;;;;;5031141;28;20104;-48
2022/12/15 16:16:16;;;;;;;38.65;5.75;;;;;;;;;;5041551;28;20041;-46
2022/12/15 16:18:43;;;;;;;44.78;8.48;;;;;;;;;;5049630;28;20026;-47
2022/12/15 16:21:15;;;;;;;58.70;11.98;;;;;;;;;;5050816;28;20033;-47
2022/12/15 16:23:42;;;;;;;;;;;;;;;;;;5050531;28;20025;-47
2022/12/15 16:26:13;;;;;;;90.07;20.58;;;;;;;;;;5046512;28;20394;-50
2022/12/15 16:28:39;;;;;;;129.38;29.08;;;;;;;;;;5048014;28;20025;-47
2022/12/15 16:31:10;;;;;;;258.75;70.97;;;;;;;;;;5030741;28;20024;-46
2022/12/15 16:33:37;;;;;;;275.58;83.22;;;;;;;;;;5030950;28;20403;-47
2022/12/15 16:36:10;;;;;;;254.00;80.88;;;;;;;;;;5031050;28;20045;-50
2022/12/15 16:38:37;;;;;;;226.93;73.53;;;;;;;;;;5030698;28;20111;-46
2022/12/15 16:41:08;;;;;;;197.05;69.28;;;;;;;;;;5030171;28;20021;-47
2022/12/15 16:43:35;;;;;;;197.48;64.60;;;;;;;;;;5030987;28;20080;-47
2022/12/15 16:46:02;;;;;;;178.60;59.95;;;;;;;;;;5030638;28;20036;-48
2022/12/15 16:48:29;;;;;;;194.57;59.25;;;;;;;;;;5030641;28;20411;-47
2022/12/15 16:51:00;;;;;;;184.40;55.33;;;;;;;;;;5030717;28;20474;-51
2022/12/15 16:53:29;;;;;;;144.82;53.97;;;;;;;;;;5012418;28;20037;-53
2022/12/15 16:55:57;;;;;;;168.95;52.50;;;;;;;;;;5027886;28;20025;-50
2022/12/15 16:58:25;;;;;;;162.52;52.60;;;;;;;;;;5043969;28;20565;-47
2022/12/15 17:00:55;;;;;;;170.75;53.40;;;;;;;;;;5049841;28;20037;-49
2022/12/15 17:03:25;;;;;;;165.20;50.95;;;;;;;;;;5033173;28;20096;-49
2022/12/15 17:05:53;;;;;;;144.15;48.63;;;;;;;;;;5021496;28;20029;-50
2022/12/15 17:08:23;;;;;;;137.40;46.42;;;;;;;;;;5023611;28;20046;-47
2022/12/15 17:10:51;;;;;;;164.30;47.40;;;;;;;;;;5024267;28;20029;-47
2022/12/15 17:13:30;;;;;;;152.60;45.72;;;;;;;;;;5041399;28;20040;-50
2022/12/15 17:15:58;;;;;;;127.45;42.90;;;;;;;;;;5024490;28;20353;-51